| time (UTC) | temp C | wind direction | speed KPH | gust KPH | rain 1hr cm | rain 24hr cm | rain mn cm | humidity % | barometer mb |
| 20260508023017 | 8 | 315 | 1.6 | 6.4 | 0.00 | 2.72 | 2.72 | 98 | 1001.7 |
| 20260508021514 | 10 | 307 | 1.6 | 8.0 | 0.00 | 2.72 | 2.72 | 99 | 1001.8 |
| 20260508020013 | 10 | 285 | 0.0 | 6.4 | 0.00 | 2.72 | 2.72 | 99 | 1001.8 |
| 20260508014512 | 10 | 274 | 1.6 | 8.0 | 0.00 | 2.72 | 2.72 | 99 | 1001.9 |
| 20260508013014 | 10 | 294 | 1.6 | 6.4 | 0.00 | 2.72 | 2.72 | 99 | 1001.7 |
| 20260508011513 | 10 | 261 | 1.6 | 8.0 | 0.00 | 2.72 | 2.72 | 99 | 1001.7 |
| 20260508010012 | 10 | 186 | 3.2 | 11.3 | 0.00 | 2.72 | 2.72 | 99 | 1002.0 |
| 20260508004524 | 10 | 254 | 3.2 | 6.4 | 0.00 | 2.72 | 2.72 | 99 | 1001.9 |
| 20260508003009 | 10 | 229 | 1.6 | 9.7 | 0.00 | 2.72 | 2.72 | 99 | 1001.9 |
| 20260508001527 | 10 | 212 | 1.6 | 8.0 | 0.00 | 2.72 | 2.72 | 99 | 1002.1 |
| 20260508000009 | 10 | 230 | 3.2 | 8.0 | 0.00 | 2.72 | 2.72 | 99 | 1002.4 |
| 20260507234510 | 10 | 215 | 3.2 | 16.1 | 0.00 | 2.72 | 2.72 | 99 | 1002.2 |
| 20260507233008 | 10 | 156 | 4.8 | 12.9 | 0.00 | 2.72 | 2.72 | 99 | 1002.1 |
| 20260507231508 | 10 | 217 | 3.2 | 11.3 | 0.00 | 2.72 | 2.72 | 98 | 1002.4 |
| 20260507230008 | 10 | 188 | 6.4 | 14.5 | 0.00 | 2.72 | 2.72 | 98 | 1002.3 |
| 20260507224510 | 11 | 225 | 3.2 | 14.5 | 0.00 | 2.72 | 2.72 | 98 | 1002.7 |
| 20260507223006 | 11 | 190 | 4.8 | 17.7 | 0.00 | 2.72 | 2.72 | 99 | 1002.5 |
| 20260507221507 | 10 | 233 | 4.8 | 12.9 | 0.00 | 2.72 | 2.72 | 98 | 1002.9 |
| 20260507220005 | 10 | 237 | 4.8 | 14.5 | 0.03 | 2.72 | 2.72 | 99 | 1002.8 |
| 20260507214505 | 10 | 194 | 4.8 | 11.3 | 0.08 | 2.72 | 2.72 | 98 | 1002.8 |
| 20260507213005 | 10 | 265 | 4.8 | 16.1 | 0.23 | 2.72 | 2.72 | 98 | 1002.8 |
| 20260507211502 | 10 | 162 | 8.0 | 24.1 | 0.51 | 2.72 | 2.72 | 98 | 1001.7 |
| 20260507210111 | 10 | 136 | 11.3 | 20.9 | 0.69 | 2.69 | 2.69 | 98 | 1002.0 |
| 20260507204557 | 10 | 170 | 8.0 | 17.7 | 0.94 | 2.64 | 2.64 | 98 | 1003.0 |
| 20260507203117 | 11 | 164 | 8.0 | 24.1 | 1.17 | 2.49 | 2.49 | 98 | 1003.6 |
| 20260507201552 | 11 | 152 | 4.8 | 17.7 | 1.27 | 2.21 | 2.21 | 98 | 1003.9 |
| 20260507200050 | 10 | 149 | 6.4 | 14.5 | 1.24 | 2.03 | 2.03 | 97 | 1004.5 |
| 20260507194559 | 11 | 246 | 0.0 | 16.1 | 1.09 | 1.70 | 1.70 | 97 | 1004.8 |
| 20260507193045 | 11 | 204 | 4.8 | 16.1 | 0.86 | 1.27 | 1.27 | 98 | 1004.8 |
| 20260507191546 | 11 | 221 | 8.0 | 24.1 | 0.61 | 0.97 | 0.97 | 97 | 1004.8 |
| 20260507190053 | 11 | 182 | 11.3 | 25.7 | 0.48 | 0.79 | 0.79 | 97 | 1004.8 |
| 20260507184541 | 11 | 164 | 14.5 | 29.0 | 0.33 | 0.61 | 0.61 | 97 | 1004.9 |
| 20260507183039 | 11 | 161 | 12.9 | 29.0 | 0.15 | 0.43 | 0.43 | 96 | 1005.2 |
| 20260507181541 | 12 | 178 | 11.3 | 24.1 | 0.05 | 0.33 | 0.33 | 95 | 1004.9 |
| 20260507180042 | 12 | 166 | 12.9 | 29.0 | 0.03 | 0.30 | 0.30 | 94 | 1004.9 |
| 20260507174544 | 13 | 158 | 16.1 | 27.4 | 0.00 | 0.28 | 0.28 | 91 | 1004.8 |
| 20260507173058 | 13 | 198 | 11.3 | 30.6 | 0.00 | 0.28 | 0.28 | 92 | 1005.1 |
| 20260507171540 | 13 | 217 | 14.5 | 29.0 | 0.00 | 0.28 | 0.28 | 93 | 1005.4 |
| 20260507170038 | 12 | 177 | 16.1 | 30.6 | 0.00 | 0.28 | 0.28 | 92 | 1005.7 |
| 20260507164534 | 13 | 190 | 19.3 | 32.2 | 0.00 | 0.28 | 0.28 | 91 | 1006.1 |
| 20260507163029 | 13 | 194 | 11.3 | 32.2 | 0.00 | 0.28 | 0.28 | 91 | 1006.3 |
| 20260507161529 | 13 | 163 | 11.3 | 33.8 | 0.00 | 0.28 | 0.28 | 92 | 1007.1 |
| 20260507160025 | 13 | 113 | 9.7 | 25.7 | 0.00 | 0.28 | 0.28 | 93 | 1007.6 |
| 20260507154526 | 13 | 196 | 8.0 | 27.4 | 0.00 | 0.28 | 0.28 | 94 | 1007.8 |
| 20260507153020 | 13 | 176 | 9.7 | 32.2 | 0.00 | 0.28 | 0.28 | 94 | 1008.2 |
| 20260507151518 | 13 | 231 | 16.1 | 35.4 | 0.00 | 0.28 | 0.28 | 94 | 1008.6 |
| 20260507150027 | 13 | 186 | 11.3 | 20.9 | 0.00 | 0.28 | 0.28 | 94 | 1008.8 |
| 20260507144515 | 13 | 156 | 11.3 | 24.1 | 0.00 | 0.28 | 0.28 | 95 | 1009.0 |
| 20260507143013 | 13 | 196 | 8.0 | 17.7 | 0.00 | 0.28 | 0.28 | 95 | 1009.4 |
| 20260507141511 | 13 | 176 | 11.3 | 24.1 | 0.00 | 0.28 | 0.28 | 96 | 1010.0 |
| 20260507140009 | 12 | 198 | 12.9 | 27.4 | 0.00 | 0.28 | 0.28 | 97 | 1010.2 |
| 20260507134506 | 12 | 162 | 14.5 | 22.5 | 0.00 | 0.28 | 0.28 | 97 | 1010.1 |
| 20260507133006 | 12 | 197 | 9.7 | 43.5 | 0.00 | 0.28 | 0.28 | 97 | 1010.5 |
| 20260507131504 | 12 | 157 | 12.9 | 35.4 | 0.00 | 0.28 | 0.28 | 97 | 1010.4 |
| 20260507130003 | 12 | 188 | 14.5 | 29.0 | 0.03 | 0.28 | 0.28 | 97 | 1009.9 |
| 20260507124607 | 12 | 114 | 11.3 | 29.0 | 0.03 | 0.28 | 0.28 | 97 | 1010.2 |
| 20260507123059 | 12 | 149 | 12.9 | 25.7 | 0.03 | 0.28 | 0.28 | 98 | 1010.5 |
| 20260507121556 | 12 | 106 | 12.9 | 29.0 | 0.03 | 0.28 | 0.28 | 98 | 1011.0 |
| 20260507120055 | 12 | 174 | 12.9 | 24.1 | 0.00 | 0.25 | 0.25 | 98 | 1011.1 |
| 20260507114605 | 12 | 169 | 11.3 | 22.5 | 0.00 | 0.25 | 0.25 | 98 | 1011.9 |
| 20260507113052 | 11 | 105 | 12.9 | 29.0 | 0.00 | 0.25 | 0.25 | 98 | 1012.0 |
| 20260507111551 | 11 | 184 | 11.3 | 22.5 | 0.00 | 0.25 | 0.25 | 98 | 1012.2 |
| 20260507110048 | 11 | 119 | 11.3 | 29.0 | 0.00 | 0.25 | 0.25 | 98 | 1011.8 |
| 20260507104545 | 11 | 158 | 12.9 | 24.1 | 0.00 | 0.25 | 0.25 | 97 | 1011.8 |
| 20260507103048 | 11 | 153 | 12.9 | 25.7 | 0.03 | 0.25 | 0.25 | 97 | 1012.4 |
| 20260507101546 | 11 | 180 | 12.9 | 27.4 | 0.03 | 0.25 | 0.25 | 98 | 1012.3 |
| 20260507100041 | 12 | 158 | 12.9 | 29.0 | 0.05 | 0.25 | 0.25 | 98 | 1011.9 |
| 20260507094552 | 12 | 179 | 9.7 | 27.4 | 0.08 | 0.25 | 0.25 | 98 | 1012.4 |
| 20260507093038 | 12 | 203 | 9.7 | 17.7 | 0.15 | 0.23 | 0.23 | 98 | 1013.0 |
| 20260507091536 | 12 | 161 | 11.3 | 19.3 | 0.15 | 0.23 | 0.23 | 98 | 1012.7 |
| 20260507090034 | 11 | 181 | 8.0 | 22.5 | 0.15 | 0.20 | 0.20 | 98 | 1012.7 |
| 20260507084538 | 11 | 162 | 8.0 | 22.5 | 0.15 | 0.15 | 0.15 | 98 | 1012.9 |
| 20260507083031 | 11 | 138 | 8.0 | 16.1 | 0.10 | 0.10 | 0.10 | 98 | 1012.7 |
| 20260507081531 | 11 | 186 | 6.4 | 17.7 | 0.08 | 0.08 | 0.08 | 97 | 1013.0 |
| 20260507080026 | 11 | 138 | 6.4 | 16.1 | 0.05 | 0.05 | 0.05 | 97 | 1013.1 |
| 20260507074524 | 11 | 209 | 4.8 | 14.5 | 0.00 | 0.00 | 0.00 | 97 | 1013.8 |
| 20260507073022 | 11 | 203 | 8.0 | 22.5 | 0.00 | 0.00 | 0.00 | 97 | 1013.8 |
| 20260507071522 | 11 | 151 | 9.7 | 22.5 | 0.00 | 0.00 | 0.00 | 97 | 1014.0 |
| 20260507070033 | 12 | 205 | 6.4 | 22.5 | 0.00 | 0.00 | 0.00 | 97 | 1014.0 |
| 20260507064518 | 12 | 170 | 12.9 | 27.4 | 0.00 | 0.00 | 0.00 | 97 | 1013.9 |
| 20260507063016 | 12 | 164 | 9.7 | 20.9 | 0.00 | 0.00 | 0.00 | 97 | 1014.2 |
| 20260507061513 | 12 | 188 | 11.3 | 24.1 | 0.00 | 0.00 | 0.00 | 97 | 1014.4 |
| 20260507060013 | 11 | 213 | 9.7 | 24.1 | 0.00 | 0.00 | 0.00 | 97 | 1014.8 |
| 20260507054506 | 11 | 213 | 8.0 | 16.1 | 0.00 | 0.00 | 0.00 | 97 | 1014.9 |
| 20260507053005 | 11 | 187 | 4.8 | 17.7 | 0.00 | 0.00 | 0.00 | 97 | 1015.1 |
| 20260507051501 | 11 | 209 | 6.4 | 17.7 | 0.00 | 0.00 | 0.00 | 97 | 1015.5 |
| 20260507050058 | 11 | 190 | 4.8 | 14.5 | 0.00 | 0.00 | 0.00 | 97 | 1015.9 |
| 20260507044617 | 11 | 180 | 4.8 | 19.3 | 0.00 | 0.00 | 0.00 | 96 | 1016.1 |
| 20260507043055 | 11 | 158 | 6.4 | 16.1 | 0.00 | 0.00 | 0.00 | 96 | 1016.5 |
| 20260507041554 | 11 | 211 | 6.4 | 16.1 | 0.00 | 0.00 | 0.00 | 96 | 1016.6 |
| 20260507040050 | 11 | 181 | 8.0 | 16.1 | 0.00 | 0.00 | 0.00 | 96 | 1016.7 |
| 20260507034548 | 12 | 184 | 3.2 | 16.1 | 0.00 | 0.00 | 0.00 | 96 | 1016.9 |
| 20260507033058 | 12 | 203 | 4.8 | 17.7 | 0.00 | 0.00 | 0.00 | 96 | 1017.2 |
| 20260507031555 | 12 | 168 | 6.4 | 14.5 | 0.00 | 0.00 | 0.00 | 95 | 1017.3 |
| 20260507030100 | 12 | 181 | 3.2 | 19.3 | 0.00 | 0.00 | 0.00 | 95 | 1017.4 |
| 20260507024600 | 12 | 263 | 6.4 | 19.3 | 0.00 | 0.00 | 0.00 | 94 | 1017.4 |